Time;durP1;ratioP1;P1;durP2;ratioP2;P2;SDS_P1;SDS_P2;PMS_P1;PMS_P2;Temp;Humidity;BMP_temperature;BMP_pressure;BME280_temperature;BME280_humidity;BME280_pressure;Samples;Min_cycle;Max_cycle;Signal;HPM_P1;HPM_P2
2022/02/27 00:02:14;;;;;;;;;12.75;10.25;;;;;7.31;47.42;102180.19;5061394;28;45222;-48
2022/02/27 00:04:40;;;;;;;;;11.50;10.50;;;;;7.31;47.65;102184.56;5059686;28;45222;-51
2022/02/27 00:07:06;;;;;;;;;9.75;9.00;;;;;7.29;47.49;102176.66;5058607;28;45334;-49
2022/02/27 00:09:31;;;;;;;;;12.75;10.50;;;;;7.28;47.54;102180.13;5059686;28;45223;-51
2022/02/27 00:11:57;;;;;;;;;9.00;7.50;;;;;7.28;47.50;102181.84;5060102;28;46318;-50
2022/02/27 00:14:23;;;;;;;;;11.50;8.50;;;;;7.27;47.43;102170.53;5059657;28;45239;-48
2022/02/27 00:16:48;;;;;;;;;10.00;9.75;;;;;7.29;47.58;102181.00;5066580;28;45251;-49
2022/02/27 00:19:14;;;;;;;;;10.50;10.25;;;;;7.28;47.54;102184.47;5066701;28;45397;-49
2022/02/27 00:21:40;;;;;;;;;11.50;10.00;;;;;7.26;47.56;102170.50;5066500;28;45275;-48
2022/02/27 00:24:06;;;;;;;;;7.25;5.00;;;;;7.18;47.38;102166.81;5066149;28;45359;-50
2022/02/27 00:26:31;;;;;;;;;11.00;9.00;;;;;7.25;47.63;102181.78;5065189;28;45379;-53
2022/02/27 00:28:57;;;;;;;;;5.00;4.75;;;;;7.22;47.68;102184.31;5066443;28;45395;-50
2022/02/27 00:31:22;;;;;;;;;10.25;5.75;;;;;7.24;47.66;102187.88;5066177;28;45319;-49
2022/02/27 00:33:47;;;;;;;;;13.50;10.25;;;;;7.22;47.65;102190.47;5066193;28;45311;-50
2022/02/27 00:36:13;;;;;;;;;7.50;6.25;;;;;7.20;47.64;102191.28;5066550;28;45311;-47
2022/02/27 00:38:38;;;;;;;;;11.00;10.00;;;;;7.20;47.61;102186.03;5065081;28;45639;-49
2022/02/27 00:41:04;;;;;;;;;13.25;9.00;;;;;7.19;47.55;102185.13;5066120;28;47163;-47
2022/02/27 00:43:29;;;;;;;;;10.75;9.25;;;;;7.19;47.37;102184.28;5066181;28;45198;-52
2022/02/27 00:45:54;;;;;;;;;8.25;4.75;;;;;7.18;47.53;102182.50;5065992;28;45417;-49
2022/02/27 00:48:20;;;;;;;;;9.25;8.00;;;;;7.16;47.70;102179.84;5066317;28;45303;-48
2022/02/27 00:50:45;;;;;;;;;11.00;8.50;;;;;7.16;47.58;102191.19;5066019;28;46278;-50
2022/02/27 00:53:10;;;;;;;;;5.50;4.50;;;;;7.15;47.65;102186.78;5066089;28;45418;-48
2022/02/27 00:55:36;;;;;;;;;10.00;8.75;;;;;7.15;47.72;102188.53;5066151;28;45395;-47
2022/02/27 00:58:02;;;;;;;;;17.50;14.00;;;;;7.13;47.38;102185.91;5066034;28;45414;-51
2022/02/27 01:00:27;;;;;;;;;9.00;5.50;;;;;7.10;47.56;102177.97;5064292;28;46290;-51
2022/02/27 01:02:53;;;;;;;;;8.50;8.50;;;;;7.11;47.67;102187.59;5068557;28;45456;-49
2022/02/27 01:05:18;;;;;;;;;5.50;5.50;;;;;7.09;47.74;102180.56;5065988;28;45224;-51
2022/02/27 01:07:44;;;;;;;;;11.00;10.00;;;;;7.07;47.51;102183.13;5065862;28;45484;-52
2022/02/27 01:10:10;;;;;;;;;9.50;7.75;;;;;7.06;47.58;102183.97;5065494;28;45418;-48
2022/02/27 01:12:35;;;;;;;;;12.00;8.00;;;;;7.05;47.61;102195.28;5065848;28;46545;-50
2022/02/27 01:15:01;;;;;;;;;15.25;10.25;;;;;7.05;47.73;102189.19;5065632;28;45255;-49
2022/02/27 01:17:26;;;;;;;;;8.75;8.50;;;;;7.02;47.76;102179.53;5065871;28;45337;-49
2022/02/27 01:19:52;;;;;;;;;10.25;9.00;;;;;6.99;47.68;102174.22;5065636;28;45264;-48
2022/02/27 01:22:17;;;;;;;;;9.50;7.25;;;;;6.99;47.79;102182.06;5065847;28;45370;-48
2022/02/27 01:24:42;;;;;;;;;7.50;6.25;;;;;6.98;47.82;102180.28;5065669;28;45485;-49
2022/02/27 01:27:07;;;;;;;;;11.50;9.50;;;;;6.97;47.70;102178.56;5061823;28;45553;-50
2022/02/27 01:29:33;;;;;;;;;9.75;8.25;;;;;6.94;47.76;102181.06;5061962;28;46037;-49
2022/02/27 01:31:59;;;;;;;;;8.00;7.25;;;;;6.95;47.78;102177.63;5061048;28;45356;-46
2022/02/27 01:34:24;;;;;;;;;10.50;7.75;;;;;6.92;47.81;102167.09;5062417;28;45436;-49
2022/02/27 01:36:50;;;;;;;;;7.00;7.00;;;;;6.91;47.74;102175.78;5062367;28;45638;-47
2022/02/27 01:39:15;;;;;;;;;8.75;7.50;;;;;6.87;47.82;102172.22;5060795;28;46518;-48
2022/02/27 01:41:41;;;;;;;;;12.50;8.50;;;;;6.89;47.70;102175.72;5062225;28;45261;-46
2022/02/27 01:44:07;;;;;;;;;6.25;5.75;;;;;6.87;47.83;102174.81;5060744;28;45328;-50
2022/02/27 01:46:34;;;;;;;;;6.75;6.75;;;;;6.83;47.83;102175.59;5062059;28;45178;-48
2022/02/27 01:48:59;;;;;;;;;8.00;8.00;;;;;6.83;47.78;102175.59;5061979;28;46900;-46
2022/02/27 01:51:25;;;;;;;;;8.00;7.00;;;;;6.80;47.87;102176.38;5062045;28;45321;-52
2022/02/27 01:53:50;;;;;;;;;10.75;8.75;;;;;6.79;47.80;102174.66;5061924;28;45402;-49
2022/02/27 01:56:17;;;;;;;;;10.25;9.00;;;;;6.79;47.66;102178.97;5061996;28;45278;-52
2022/02/27 01:58:43;;;;;;;;;10.75;9.00;;;;;6.77;47.83;102157.16;5061752;28;45348;-49
2022/02/27 02:01:09;;;;;;;;;6.00;6.00;;;;;6.75;47.74;102159.72;5060875;28;45431;-49
2022/02/27 02:03:34;;;;;;;;;8.50;5.00;;;;;6.74;48.00;102159.69;5062791;28;45237;-48
2022/02/27 02:06:00;;;;;;;;;9.50;8.00;;;;;6.73;47.88;102164.03;5061898;28;45223;-50
2022/02/27 02:08:25;;;;;;;;;11.00;10.25;;;;;6.72;47.72;102161.41;5061520;28;45415;-48
2022/02/27 02:10:50;;;;;;;;;9.50;7.25;;;;;6.69;48.17;102150.84;5061500;28;45314;-49
2022/02/27 02:13:16;;;;;;;;;8.75;4.75;;;;;6.70;47.84;102157.84;5061770;28;45363;-50
2022/02/27 02:15:41;;;;;;;;;9.50;4.75;;;;;6.66;47.99;102151.66;5061505;28;45446;-50
2022/02/27 02:18:10;;;;;;;;;6.25;6.25;;;;;6.65;47.84;102156.03;5060189;28;48354;-49
2022/02/27 02:20:37;;;;;;;;;9.00;8.00;;;;;6.65;47.79;102152.50;5061667;28;45460;-49
2022/02/27 02:23:03;;;;;;;;;7.50;7.00;;;;;6.62;47.86;102161.16;5061572;28;45384;-48
2022/02/27 02:25:28;;;;;;;;;12.25;9.50;;;;;6.62;47.97;102160.28;5061260;28;45573;-48
2022/02/27 02:27:54;;;;;;;;;8.00;7.00;;;;;6.59;47.77;102154.97;5061266;28;45920;-48
2022/02/27 02:30:19;;;;;;;;;9.75;7.75;;;;;6.58;47.89;102154.09;5061172;28;45331;-49
2022/02/27 02:32:56;;;;;;;;;10.25;8.25;;;;;6.57;47.77;102143.63;5061494;28;45213;-48
2022/02/27 02:35:24;;;;;;;;;8.75;8.75;;;;;6.55;47.86;102137.47;5061472;28;45170;-51
2022/02/27 02:37:50;;;;;;;;;7.00;4.00;;;;;6.53;47.89;102141.75;5060945;28;46216;-50
2022/02/27 02:40:15;;;;;;;;;7.00;7.00;;;;;6.48;47.94;102137.31;5060229;28;45319;-50
2022/02/27 02:42:42;;;;;;;;;8.00;8.00;;;;;6.49;47.95;102139.06;5060141;28;45316;-51
2022/02/27 02:45:10;;;;;;;;;8.25;7.25;;;;;6.48;48.01;102139.03;5059554;28;45440;-47
2022/02/27 02:47:42;;;;;;;;;5.25;5.25;;;;;6.47;47.92;102137.28;5061233;28;46140;-49
2022/02/27 02:50:09;;;;;;;;;9.00;7.25;;;;;6.43;47.79;102136.31;5061005;28;45465;-52
2022/02/27 02:52:35;;;;;;;;;8.00;8.00;;;;;6.45;48.41;102142.47;5061331;28;45321;-50
2022/02/27 02:55:03;;;;;;;;;7.25;7.00;;;;;6.43;47.86;102136.31;5060801;28;45368;-48
2022/02/27 02:57:29;;;;;;;;;5.25;4.75;;;;;6.43;47.85;102138.91;5061165;28;47139;-54
2022/02/27 02:59:54;;;;;;;;;8.50;8.50;;;;;6.40;47.88;102136.25;5059112;28;45323;-51
2022/02/27 03:02:20;;;;;;;;;6.25;3.75;;;;;6.40;47.88;102130.13;5064025;28;45358;-49
2022/02/27 03:04:45;;;;;;;;;10.50;8.50;;;;;6.38;47.77;102145.75;5060812;28;45281;-48
2022/02/27 03:07:10;;;;;;;;;7.50;5.25;;;;;6.39;47.75;102144.00;5059380;28;48256;-51
2022/02/27 03:09:36;;;;;;;;;7.75;6.75;;;;;6.36;47.79;102139.59;5060494;28;45403;-48
2022/02/27 03:12:05;;;;;;;;;8.00;5.50;;;;;6.32;47.83;102136.03;5059779;28;45322;-47
2022/02/27 03:14:31;;;;;;;;;4.00;2.50;;;;;6.32;47.97;102133.41;5060606;28;45455;-51
2022/02/27 03:16:56;;;;;;;;;8.00;5.25;;;;;6.33;47.59;102137.78;5060635;28;46288;-50
2022/02/27 03:19:21;;;;;;;;;7.75;4.75;;;;;6.29;47.87;102128.13;5060552;28;45310;-49
2022/02/27 03:21:47;;;;;;;;;7.50;7.00;;;;;6.29;47.91;102124.59;5060876;28;45308;-48
2022/02/27 03:24:12;;;;;;;;;7.25;4.50;;;;;6.28;47.92;102120.25;5060387;28;45498;-51
2022/02/27 03:26:38;;;;;;;;;12.50;7.00;;;;;6.26;47.93;102124.53;5060525;28;46265;-47
2022/02/27 03:29:04;;;;;;;;;4.50;3.25;;;;;6.24;47.97;102121.91;5058968;28;45368;-48
2022/02/27 03:31:29;;;;;;;;;7.75;6.75;;;;;6.21;47.97;102120.94;5060669;28;45516;-50
2022/02/27 03:33:54;;;;;;;;;5.00;5.00;;;;;6.20;47.99;102119.16;5060358;28;45560;-48
2022/02/27 03:36:20;;;;;;;;;9.25;7.75;;;;;6.20;48.00;102114.84;5060543;28;46151;-52
2022/02/27 03:38:45;;;;;;;;;6.00;6.00;;;;;6.18;47.98;102125.22;5058996;28;45318;-50
2022/02/27 03:41:11;;;;;;;;;7.00;6.75;;;;;6.16;48.11;102119.09;5060435;28;45327;-48
2022/02/27 03:43:36;;;;;;;;;9.50;8.50;;;;;6.15;47.93;102119.94;5060165;28;45396;-49
2022/02/27 03:46:02;;;;;;;;;7.00;6.75;;;;;6.13;48.00;102121.63;5060051;28;45418;-49
2022/02/27 03:48:28;;;;;;;;;12.50;3.75;;;;;6.08;48.01;102112.78;5060163;28;45322;-50
2022/02/27 03:50:53;;;;;;;;;8.75;6.25;;;;;6.09;48.18;102125.00;5059765;28;45719;-51
2022/02/27 03:53:18;;;;;;;;;4.50;4.25;;;;;6.07;48.19;102124.06;5060168;28;45536;-50
2022/02/27 03:55:44;;;;;;;;;8.25;7.00;;;;;6.06;48.09;102129.25;5060072;28;45307;-48
2022/02/27 03:58:09;;;;;;;;;9.00;7.75;;;;;6.04;48.09;102133.53;5060175;28;45286;-51
2022/02/27 04:00:35;;;;;;;;;7.50;4.50;;;;;5.99;48.08;102130.81;5060021;28;45331;-51
2022/02/27 04:03:00;;;;;;;;;4.75;4.75;;;;;6.01;48.06;102139.56;5060674;28;45287;-49
2022/02/27 04:05:25;;;;;;;;;5.25;4.00;;;;;5.97;48.16;102142.91;5059787;28;46202;-48
2022/02/27 04:07:51;;;;;;;;;10.00;8.00;;;;;5.97;48.05;102141.16;5058462;28;45243;-49
2022/02/27 04:10:16;;;;;;;;;6.50;6.50;;;;;5.96;48.01;102138.50;5060057;28;45825;-50
2022/02/27 04:12:42;;;;;;;;;7.00;4.25;;;;;5.93;48.03;102141.06;5060139;28;45178;-49
2022/02/27 04:15:09;;;;;;;;;12.25;7.00;;;;;5.88;48.03;102137.44;5059585;28;45826;-52
2022/02/27 04:17:34;;;;;;;;;7.25;6.00;;;;;5.88;48.02;102140.03;5058578;28;45378;-47
2022/02/27 04:19:59;;;;;;;;;8.00;6.00;;;;;5.88;48.02;102142.66;5059928;28;45470;-47
2022/02/27 04:22:26;;;;;;;;;8.75;6.75;;;;;5.85;48.14;102128.66;5059953;28;45323;-48
2022/02/27 04:24:51;;;;;;;;;9.00;4.00;;;;;5.83;48.26;102130.34;5059686;28;46205;-51
2022/02/27 04:27:17;;;;;;;;;10.00;6.00;;;;;5.80;48.16;102127.66;5058173;28;45425;-51
2022/02/27 04:29:42;;;;;;;;;7.25;3.75;;;;;5.80;47.92;102130.28;5059460;28;45432;-48
2022/02/27 04:32:08;;;;;;;;;7.00;7.00;;;;;5.81;48.19;102134.66;5059609;28;45307;-49
2022/02/27 04:34:34;;;;;;;;;5.75;5.75;;;;;5.79;48.14;102127.63;5059658;28;45357;-50
2022/02/27 04:36:59;;;;;;;;;3.75;3.75;;;;;5.77;48.16;102130.16;5059589;28;45360;-52
2022/02/27 04:39:25;;;;;;;;;6.50;5.25;;;;;5.75;48.14;102129.25;5059709;28;45400;-48
2022/02/27 04:41:50;;;;;;;;;7.50;5.00;;;;;5.70;48.12;102123.03;5059697;28;45241;-46
2022/02/27 04:44:16;;;;;;;;;8.25;6.75;;;;;5.69;48.18;102126.47;5059086;28;45973;-51
2022/02/27 04:46:41;;;;;;;;;6.50;6.50;;;;;5.71;48.16;102130.03;5058075;28;45351;-49
2022/02/27 04:49:06;;;;;;;;;7.50;7.50;;;;;5.68;48.06;102129.94;5059507;28;45415;-50
2022/02/27 04:51:32;;;;;;;;;7.00;3.75;;;;;5.66;48.14;102131.59;5058143;28;45247;-50
2022/02/27 04:53:57;;;;;;;;;9.50;6.00;;;;;5.65;48.21;102135.06;5059010;28;45326;-49
2022/02/27 04:56:22;;;;;;;;;6.25;6.00;;;;;5.63;48.24;102128.91;5058047;28;45819;-51
2022/02/27 04:58:48;;;;;;;;;7.50;7.25;;;;;5.62;48.22;102124.53;5059000;28;45420;-48
2022/02/27 05:01:13;;;;;;;;;6.75;6.50;;;;;5.57;48.30;102129.59;5060636;28;45253;-47
2022/02/27 05:03:39;;;;;;;;;4.75;4.75;;;;;5.59;48.02;102129.69;5063312;28;46114;-48
2022/02/27 05:06:04;;;;;;;;;5.50;5.50;;;;;5.59;48.30;102129.69;5062653;28;45474;-48
2022/02/27 05:08:29;;;;;;;;;7.00;7.00;;;;;5.57;47.94;102134.81;5062574;28;45474;-48
2022/02/27 05:10:55;;;;;;;;;6.50;3.50;;;;;5.56;48.24;102129.56;5062520;28;45322;-46
2022/02/27 05:13:20;;;;;;;;;8.75;4.50;;;;;5.55;48.30;102126.09;5061101;28;46025;-49
2022/02/27 05:15:45;;;;;;;;;6.00;3.75;;;;;5.53;48.28;102130.38;5062321;28;45331;-48
2022/02/27 05:18:11;;;;;;;;;11.50;6.25;;;;;5.50;48.27;102115.53;5062535;28;45954;-52
2022/02/27 05:20:36;;;;;;;;;7.50;6.00;;;;;5.46;48.14;102118.88;5062607;28;45303;-47
2022/02/27 05:23:02;;;;;;;;;7.75;6.25;;;;;5.48;48.36;102113.72;5062279;28;45412;-51
2022/02/27 05:25:27;;;;;;;;;6.00;4.00;;;;;5.45;48.55;102114.50;5062333;28;45348;-48
2022/02/27 05:27:54;;;;;;;;;5.75;4.75;;;;;5.43;48.33;102117.91;5061131;28;45662;-47
2022/02/27 05:30:21;;;;;;;;;7.50;6.00;;;;;5.42;48.38;102113.53;5062189;28;45326;-50
2022/02/27 05:32:47;;;;;;;;;5.00;5.00;;;;;5.39;48.44;102114.31;5062006;28;46222;-50
2022/02/27 05:35:12;;;;;;;;;5.00;4.50;;;;;5.39;48.28;102114.31;5060903;28;45375;-48
2022/02/27 05:37:38;;;;;;;;;6.75;6.75;;;;;5.34;48.37;102106.34;5062551;28;45341;-49
2022/02/27 05:40:05;;;;;;;;;6.50;3.50;;;;;5.35;48.50;102107.25;5062116;28;45426;-49
2022/02/27 05:42:31;;;;;;;;;5.00;4.00;;;;;5.33;48.36;102112.44;5062107;28;46191;-47
2022/02/27 05:44:57;;;;;;;;;7.25;3.00;;;;;5.32;48.40;102112.38;5061816;28;45362;-48
2022/02/27 05:47:22;;;;;;;;;7.25;4.50;;;;;5.30;48.35;102122.75;5062022;28;45303;-50
2022/02/27 05:49:47;;;;;;;;;7.50;5.50;;;;;5.29;48.45;102120.97;5062092;28;45436;-50
2022/02/27 05:52:13;;;;;;;;;4.00;3.75;;;;;5.26;48.59;102109.59;5061949;28;45405;-51
2022/02/27 05:54:38;;;;;;;;;6.50;4.00;;;;;5.25;48.23;102113.91;5060585;28;45384;-46
2022/02/27 05:57:03;;;;;;;;;8.00;6.00;;;;;5.23;48.33;102101.69;5060730;28;45519;-48
2022/02/27 05:59:29;;;;;;;;;6.25;3.25;;;;;5.22;48.41;102106.03;5061492;28;45330;-51
2022/02/27 06:01:54;;;;;;;;;6.75;6.25;;;;;5.20;48.52;102112.91;5063158;28;46082;-48
2022/02/27 06:04:21;;;;;;;;;3.00;3.00;;;;;5.18;49.04;102111.97;5061847;28;45236;-48
2022/02/27 06:06:46;;;;;;;;;5.00;5.00;;;;;5.16;48.30;102113.66;5061507;28;45376;-46
2022/02/27 06:09:12;;;;;;;;;6.50;6.00;;;;;5.13;48.51;102110.94;5060129;28;45414;-49
2022/02/27 06:11:37;;;;;;;;;7.25;6.00;;;;;5.13;48.29;102121.38;5043597;28;46126;-47
2022/02/27 06:14:03;;;;;;;;;7.25;6.00;;;;;5.12;48.60;102127.41;5061191;28;45160;-47
2022/02/27 06:16:28;;;;;;;;;5.50;5.50;;;;;5.11;48.13;102126.53;5061755;28;45212;-47
2022/02/27 06:18:54;;;;;;;;;4.00;3.00;;;;;5.08;48.67;102110.81;5061560;28;45549;-48
2022/02/27 06:21:19;;;;;;;;;3.75;3.75;;;;;5.06;48.45;102109.88;5061433;28;46186;-47
2022/02/27 06:23:45;;;;;;;;;4.75;4.75;;;;;5.03;48.64;102101.97;5061583;28;45338;-49
2022/02/27 06:26:10;;;;;;;;;5.00;4.50;;;;;5.02;48.43;102108.03;5061337;28;45276;-52
2022/02/27 06:28:36;;;;;;;;;7.50;4.00;;;;;5.03;48.50;102112.38;5061380;28;45457;-48
2022/02/27 06:31:01;;;;;;;;;5.50;5.50;;;;;4.99;48.34;102105.31;5060939;28;46207;-52
2022/02/27 06:33:26;;;;;;;;;7.75;6.25;;;;;4.99;48.64;102115.75;5061413;28;45389;-51
2022/02/27 06:35:52;;;;;;;;;6.50;4.75;;;;;4.99;48.34;102120.94;5061184;28;45335;-49
2022/02/27 06:38:17;;;;;;;;;7.50;3.75;;;;;4.95;48.60;102108.66;5061456;28;45312;-51
2022/02/27 06:40:43;;;;;;;;;6.00;5.00;;;;;4.95;48.60;102112.16;5060997;28;46126;-50
2022/02/27 06:43:08;;;;;;;;;8.75;6.00;;;;;4.95;48.53;102111.28;5060024;28;45321;-50
2022/02/27 06:45:34;;;;;;;;;7.00;4.50;;;;;4.94;48.48;102104.28;5059655;28;45391;-51
2022/02/27 06:48:00;;;;;;;;;6.00;6.00;;;;;4.93;48.43;102107.72;5061343;28;45234;-56
2022/02/27 06:50:26;;;;;;;;;7.75;5.50;;;;;4.92;48.70;102113.78;5060864;28;45446;-53
2022/02/27 06:52:51;;;;;;;;;4.00;4.00;;;;;4.91;48.62;102107.69;5061306;28;45331;-48
2022/02/27 06:55:19;;;;;;;;;6.00;6.00;;;;;4.88;48.49;102102.41;5060913;28;45241;-48
2022/02/27 06:57:44;;;;;;;;;6.00;6.00;;;;;4.90;48.17;102108.53;5061168;28;45449;-51
2022/02/27 07:00:11;;;;;;;;;3.75;3.75;;;;;4.90;48.42;102108.53;5042277;28;46392;-48
2022/02/27 07:02:37;;;;;;;;;6.75;5.50;;;;;4.87;48.45;102104.09;5063725;28;45304;-48
2022/02/27 07:05:03;;;;;;;;;9.00;7.50;;;;;4.88;48.58;102103.28;5060922;28;45319;-49
2022/02/27 07:07:29;;;;;;;;;5.00;4.75;;;;;4.88;48.54;102103.28;5060510;28;45565;-51
2022/02/27 07:10:00;;;;;;;;;6.00;5.00;;;;;4.87;48.62;102106.72;5059120;28;46091;-47
2022/02/27 07:12:25;;;;;;;;;7.00;4.00;;;;;4.86;48.61;102098.84;5060858;28;45362;-47
2022/02/27 07:14:51;;;;;;;;;4.75;3.50;;;;;4.85;48.53;102097.06;5059149;28;45339;-48
2022/02/27 07:17:16;;;;;;;;;6.50;6.25;;;;;4.83;48.68;102098.72;5060847;28;45298;-48
2022/02/27 07:19:41;;;;;;;;;8.50;7.50;;;;;4.86;48.45;102104.06;5060311;28;46113;-48
2022/02/27 07:22:07;;;;;;;;;10.00;7.00;;;;;4.86;48.79;102110.13;5060632;28;45322;-50
2022/02/27 07:24:33;;;;;;;;;6.25;4.00;;;;;4.87;48.56;102105.84;5059819;28;45335;-47
2022/02/27 07:26:58;;;;;;;;;3.00;3.00;;;;;4.88;48.24;102112.81;5060550;28;45525;-52
2022/02/27 07:29:24;;;;;;;;;6.50;6.00;;;;;4.87;48.69;102103.22;5058687;28;47546;-48
2022/02/27 07:31:49;;;;;;;;;6.25;4.00;;;;;4.86;48.57;102104.94;5059285;28;45463;-49
2022/02/27 07:34:14;;;;;;;;;4.00;3.00;;;;;4.89;48.61;102101.53;5060503;28;45474;-48
2022/02/27 07:36:40;;;;;;;;;9.50;6.25;;;;;4.91;48.46;102109.41;5060433;28;45222;-49
2022/02/27 07:39:06;;;;;;;;;6.00;3.50;;;;;4.92;48.49;102114.66;5060070;28;45458;-48
2022/02/27 07:41:31;;;;;;;;;7.25;4.75;;;;;4.93;48.94;102107.72;5060408;28;45191;-48
2022/02/27 07:43:56;;;;;;;;;7.75;6.75;;;;;4.92;48.73;102098.13;5060043;28;45230;-50
2022/02/27 07:46:22;;;;;;;;;6.50;3.25;;;;;4.96;48.81;102100.91;5060323;28;45160;-49
2022/02/27 07:48:47;;;;;;;;;2.25;2.00;;;;;4.98;48.72;102096.63;5060091;28;45308;-51
2022/02/27 07:51:12;;;;;;;;;4.00;3.00;;;;;4.97;48.65;102101.78;5060360;28;45190;-51
2022/02/27 07:53:38;;;;;;;;;6.00;6.00;;;;;5.02;48.47;102106.31;5060227;28;45305;-50
2022/02/27 07:56:03;;;;;;;;;8.25;6.00;;;;;5.01;48.51;102107.13;5060252;28;45216;-52
2022/02/27 07:58:29;;;;;;;;;7.50;4.00;;;;;5.03;48.84;102113.28;5059828;28;46045;-53
2022/02/27 08:00:54;;;;;;;;;7.00;3.75;;;;;5.07;48.52;102109.06;5058491;28;45577;-51
2022/02/27 08:03:19;;;;;;;;;6.75;6.75;;;;;5.09;48.73;102117.78;5061304;28;45373;-52
2022/02/27 08:05:45;;;;;;;;;9.00;6.00;;;;;5.13;48.51;102126.59;5060141;28;45312;-47
2022/02/27 08:08:10;;;;;;;;;4.50;3.00;;;;;5.15;48.51;102123.19;5059867;28;46098;-52
2022/02/27 08:10:36;;;;;;;;;55.50;42.50;;;;;5.17;48.71;102120.63;5059854;28;45299;-49
2022/02/27 08:13:01;;;;;;;;;0.00;0.00;;;;;5.20;48.62;102124.19;5060187;28;45594;-52
2022/02/27 08:15:26;;;;;;;;;4.50;4.50;;;;;5.21;48.58;102112.94;5059736;28;45308;-51
2022/02/27 08:17:53;;;;;;;;;3.50;3.50;;;;;5.26;48.79;102120.91;5059877;28;46193;-47
2022/02/27 08:20:19;;;;;;;;;5.50;4.00;;;;;5.28;48.88;102126.16;5059978;28;45278;-48
2022/02/27 08:22:44;;;;;;;;;3.75;3.75;;;;;5.31;48.74;102124.53;5059714;28;45470;-52
2022/02/27 08:25:12;;;;;;;;;5.50;2.75;;;;;5.33;48.69;102130.69;5059816;28;45438;-52
2022/02/27 08:27:38;;;;;;;;;2.75;2.00;;;;;5.36;48.56;102133.38;5058073;28;45963;-49
2022/02/27 08:30:05;;;;;;;;;7.25;4.50;;;;;5.41;48.43;102137.81;5059270;28;45278;-50
2022/02/27 08:32:31;;;;;;;;;11.25;9.25;;;;;5.43;48.63;102141.38;5059454;28;45316;-53
2022/02/27 08:34:56;;;;;;;;;4.00;4.00;;;;;5.45;48.53;102132.75;5059601;28;45365;-48
2022/02/27 08:37:22;;;;;;;;;6.50;5.00;;;;;5.52;48.58;102136.41;5060727;28;47307;-50
2022/02/27 08:39:47;;;;;;;;;5.25;3.00;;;;;5.58;48.56;102138.34;5061685;28;45481;-48
2022/02/27 08:42:13;;;;;;;;;8.00;8.00;;;;;5.64;48.51;102133.28;5062446;28;45321;-48
2022/02/27 08:44:38;;;;;;;;;5.75;5.75;;;;;5.70;48.58;102133.47;5058284;28;45566;-51
2022/02/27 08:47:05;;;;;;;;;4.00;3.75;;;;;5.75;48.81;102136.19;5062785;28;45596;-50
2022/02/27 08:49:33;;;;;;;;;8.00;5.25;;;;;5.82;48.45;102139.03;5062876;28;45425;-50
2022/02/27 08:51:59;;;;;;;;;4.50;4.00;;;;;5.90;48.71;102149.69;5062891;28;45248;-46
2022/02/27 08:54:25;;;;;;;;;3.25;3.25;;;;;5.94;48.63;102145.44;5062808;28;45313;-47
2022/02/27 08:56:50;;;;;;;;;6.50;5.25;;;;;6.02;48.53;102138.72;5061462;28;47174;-49
2022/02/27 08:59:16;;;;;;;;;3.50;3.50;;;;;6.08;48.42;102138.00;5062727;28;45379;-51
2022/02/27 09:01:42;;;;;;;;;1.75;1.75;;;;;6.16;48.68;102134.75;5064318;28;45418;-47
2022/02/27 09:04:07;;;;;;;;;7.50;5.25;;;;;6.24;48.44;102139.28;5062890;28;45589;-48
2022/02/27 09:06:32;;;;;;;;;10.00;9.25;;;;;6.30;48.63;102134.22;5061216;28;45351;-46
2022/02/27 09:08:58;;;;;;;;;8.00;8.00;;;;;6.39;48.55;102136.19;5062341;28;45566;-51
2022/02/27 09:11:23;;;;;;;;;4.00;3.75;;;;;6.45;48.37;102137.25;5062754;28;45588;-52
2022/02/27 09:13:49;;;;;;;;;7.50;4.75;;;;;6.55;48.33;102155.75;5062620;28;45335;-48
2022/02/27 09:16:15;;;;;;;;;8.25;6.50;;;;;6.62;48.47;102163.75;5061092;28;46139;-49
2022/02/27 09:18:40;;;;;;;;;3.50;3.50;;;;;6.68;48.42;102155.22;5062927;28;45225;-48
2022/02/27 09:21:07;;;;;;;;;6.75;4.50;;;;;6.76;48.33;102166.72;5062684;28;45553;-54
2022/02/27 09:23:32;;;;;;;;;5.50;3.25;;;;;6.82;48.46;102168.59;5062535;28;45157;-51
2022/02/27 09:25:58;;;;;;;;;4.50;4.00;;;;;6.90;48.29;102158.34;5061961;28;45264;-49
2022/02/27 09:28:24;;;;;;;;;3.50;3.00;;;;;6.95;48.35;102162.81;5061329;28;45188;-47
2022/02/27 09:30:49;;;;;;;;;3.75;3.50;;;;;7.03;48.18;102152.56;5062073;28;45394;-50
2022/02/27 09:33:15;;;;;;;;;8.75;5.75;;;;;7.09;48.25;102150.06;5060966;28;45891;-50
2022/02/27 09:35:40;;;;;;;;;4.00;4.00;;;;;7.17;47.99;102158.09;5062092;28;46383;-47
2022/02/27 09:38:06;;;;;;;;;3.25;3.25;;;;;7.25;48.16;102145.19;5062171;28;45340;-46
2022/02/27 09:40:31;;;;;;;;;4.25;3.50;;;;;7.28;48.03;102147.84;5060740;28;45465;-52
2022/02/27 09:42:58;;;;;;;;;5.75;4.00;;;;;7.39;48.03;102154.19;5061012;28;45273;-50
2022/02/27 09:45:24;;;;;;;;;5.25;4.75;;;;;7.48;48.14;102157.03;5061693;28;46213;-50
2022/02/27 09:47:52;;;;;;;;;5.25;4.00;;;;;7.57;48.04;102147.59;5061430;28;45670;-48
2022/02/27 09:50:19;;;;;;;;;3.25;2.50;;;;;7.68;47.92;102140.84;5061962;28;45202;-46
2022/02/27 09:52:44;;;;;;;;;5.50;4.50;;;;;7.75;47.87;102145.34;5062144;28;45419;-50
2022/02/27 09:55:12;;;;;;;;;3.25;3.25;;;;;7.85;47.92;102142.91;5061518;28;45641;-47
2022/02/27 09:57:38;;;;;;;;;5.00;4.00;;;;;7.94;47.59;102145.72;5061805;28;45428;-49
2022/02/27 10:00:05;;;;;;;;;4.00;4.00;;;;;8.05;47.67;102146.81;5061510;28;45273;-50
2022/02/27 10:02:32;;;;;;;;;4.75;4.75;;;;;8.14;47.78;102144.34;5061838;28;45603;-48
2022/02/27 10:04:59;;;;;;;;;4.00;3.50;;;;;8.27;47.61;102141.97;5060026;28;47613;-48
2022/02/27 10:07:25;;;;;;;;;5.00;4.75;;;;;8.36;47.68;102144.72;5061466;28;45331;-50
2022/02/27 10:10:04;;;;;;;;;4.00;3.75;;;;;8.50;47.68;102142.38;5061404;28;45882;-50
2022/02/27 10:12:29;;;;;;;;;4.00;4.00;;;;;8.61;47.56;102142.56;5061619;28;45454;-49
2022/02/27 10:15:08;;;;;;;;;5.50;4.00;;;;;8.72;47.57;102143.63;5061201;28;46360;-47
2022/02/27 10:17:38;;;;;;;;;5.00;5.00;;;;;8.84;47.31;102142.94;5061633;28;45254;-50
2022/02/27 10:20:10;;;;;;;;;9.00;6.00;;;;;8.96;47.50;102138.75;5061814;28;45338;-49
2022/02/27 10:22:41;;;;;;;;;6.00;5.00;;;;;9.09;47.59;102138.03;5061419;28;45436;-50
2022/02/27 10:25:18;;;;;;;;;4.50;4.50;;;;;9.20;47.31;102146.06;5061459;28;45212;-49
2022/02/27 10:27:47;;;;;;;;;10.25;6.75;;;;;9.29;47.38;102143.56;5061390;28;45282;-52
2022/02/27 10:30:46;;;;;;;;;9.00;5.00;;;;;9.42;47.15;102148.13;5061162;28;45350;-51
2022/02/27 10:33:12;;;;;;;;;4.50;4.50;;;;;9.51;47.27;102143.84;5049085;28;45343;-48
2022/02/27 10:35:50;;;;;;;;;5.50;4.25;;;;;9.63;47.12;102136.13;5061169;28;45891;-47
2022/02/27 10:38:17;;;;;;;;;6.00;5.00;;;;;9.72;47.16;102136.25;5061588;28;45398;-51
2022/02/27 10:40:50;;;;;;;;;9.75;5.50;;;;;9.84;47.23;102139.88;5061152;28;45244;-49
2022/02/27 10:43:17;;;;;;;;;5.25;5.00;;;;;9.92;47.15;102135.56;5060111;28;45575;-47
2022/02/27 10:45:43;;;;;;;;;6.00;6.00;;;;;10.02;46.98;102141.81;5060742;28;46065;-47
2022/02/27 10:48:16;;;;;;;;;5.50;5.00;;;;;10.11;46.77;102136.66;5061383;28;45336;-47
2022/02/27 10:50:44;;;;;;;;;5.50;5.50;;;;;10.23;47.06;102135.91;5061104;28;45348;-48
2022/02/27 10:53:13;;;;;;;;;4.00;4.00;;;;;10.31;46.95;102134.19;5059836;28;45284;-49
2022/02/27 10:55:38;;;;;;;;;7.00;7.00;;;;;10.42;46.70;102138.75;5060875;28;45507;-50
2022/02/27 10:58:05;;;;;;;;;7.25;5.00;;;;;10.50;46.72;102137.03;5060915;28;45174;-49
2022/02/27 11:00:34;;;;;;;;;7.50;6.25;;;;;10.59;46.79;102136.22;5059715;28;45280;-48
2022/02/27 11:03:04;;;;;;;;;7.00;5.75;;;;;10.67;46.63;102132.78;5063175;28;45355;-48
2022/02/27 11:05:41;;;;;;;;;8.25;5.75;;;;;10.77;46.59;102132.84;5059501;28;46301;-52
2022/02/27 11:08:11;;;;;;;;;9.75;6.50;;;;;10.87;46.47;102129.44;5060597;28;45298;-49
2022/02/27 11:10:39;;;;;;;;;7.25;6.50;;;;;10.97;46.56;102131.25;5059484;28;45458;-49
2022/02/27 11:13:06;;;;;;;;;7.00;7.00;;;;;11.06;46.51;102133.94;5060852;28;45232;-52
2022/02/27 11:15:33;;;;;;;;;8.00;6.50;;;;;11.15;46.48;102130.47;5060473;28;46195;-47
2022/02/27 11:17:59;;;;;;;;;5.50;5.25;;;;;11.25;46.25;102122.66;5060658;28;45394;-48
2022/02/27 11:20:26;;;;;;;;;8.75;8.75;;;;;11.34;46.41;102138.47;5060837;28;45277;-51
2022/02/27 11:22:53;;;;;;;;;7.50;6.25;;;;;11.44;46.23;102132.38;5060611;28;45513;-52
2022/02/27 11:25:20;;;;;;;;;8.50;8.00;;;;;11.56;46.33;102131.56;5060412;28;45361;-50
2022/02/27 11:27:51;;;;;;;;;7.00;7.00;;;;;11.65;46.26;102130.72;5059009;28;45524;-51